createdAt,value
2017-12-19T00:01:07.037Z,1034.2
2017-12-19T00:16:07.187Z,1034.3
2017-12-19T00:21:07.284Z,1034.4
2017-12-19T00:36:07.111Z,1034.8
2017-12-19T00:41:07.265Z,1034.9
2017-12-19T00:46:07.274Z,1034.9
2017-12-19T01:06:07.497Z,1035.2
2017-12-19T01:11:07.326Z,1035.3
2017-12-19T01:26:07.612Z,1035.4
2017-12-19T01:36:07.688Z,1035.6
2017-12-19T01:41:07.539Z,1035.7
2017-12-19T01:46:07.649Z,1035.6
2017-12-19T01:51:07.775Z,1035.6
2017-12-19T02:06:07.957Z,1035.7
2017-12-19T02:11:07.897Z,1035.7
2017-12-19T02:16:07.772Z,1035.7
2017-12-19T02:21:07.844Z,1035.7
2017-12-19T02:31:08.040Z,1035.8
2017-12-19T02:36:08.065Z,1035.8
2017-12-19T02:41:08.248Z,1035.9
2017-12-19T02:46:08.003Z,1035.9
2017-12-19T02:51:08.041Z,1035.9
2017-12-19T02:56:08.099Z,1035.9
2017-12-19T03:01:08.007Z,1035.9
2017-12-19T03:06:08.138Z,1035.8
2017-12-19T03:21:08.236Z,1035.8
2017-12-19T03:26:08.205Z,1035.8
2017-12-19T03:31:08.281Z,1035.9
2017-12-19T03:36:08.329Z,1035.9
2017-12-19T03:41:08.456Z,1035.8
2017-12-19T03:46:08.399Z,1035.8
2017-12-19T03:51:08.304Z,1035.9
2017-12-19T03:56:08.222Z,1036
2017-12-19T04:01:08.207Z,1035.9
2017-12-19T04:06:08.256Z,1035.9
2017-12-19T04:11:08.322Z,1035.9
2017-12-19T04:16:08.387Z,1035.9
2017-12-19T04:26:08.472Z,1036
2017-12-19T04:31:08.570Z,1036.1
2017-12-19T04:36:08.575Z,1036.2
2017-12-19T04:41:08.596Z,1036.3
2017-12-19T04:46:08.395Z,1036.2
2017-12-19T04:56:08.504Z,1036.4
2017-12-19T05:01:08.544Z,1036.4
2017-12-19T05:11:08.509Z,1036.5
2017-12-19T05:16:08.602Z,1036.7
2017-12-19T05:21:08.638Z,1036.7
2017-12-19T05:26:08.708Z,1036.8
2017-12-19T05:31:08.599Z,1036.8
2017-12-19T05:36:08.510Z,1037
2017-12-19T05:46:08.701Z,1037.1
2017-12-19T05:51:08.745Z,1037.3
2017-12-19T05:56:08.744Z,1037.3
2017-12-19T06:01:08.999Z,1037.3
2017-12-19T06:06:08.799Z,1037.4
2017-12-19T06:11:08.833Z,1037.5
2017-12-19T06:16:08.721Z,1037.5
2017-12-19T06:21:08.823Z,1037.6
2017-12-19T06:26:08.816Z,1037.6
2017-12-19T06:31:09.878Z,1037.6
2017-12-19T06:36:08.744Z,1037.7
2017-12-19T06:41:08.932Z,1037.7
2017-12-19T06:51:08.726Z,1037.7
2017-12-19T06:56:08.845Z,1037.7
2017-12-19T07:01:08.965Z,1037.7
2017-12-19T07:06:08.863Z,1037.8
2017-12-19T07:11:08.927Z,1037.8
2017-12-19T07:16:08.859Z,1037.8
2017-12-19T07:21:08.951Z,1037.9
2017-12-19T07:26:08.892Z,1037.9
2017-12-19T07:31:08.922Z,1037.9
2017-12-19T07:36:08.803Z,1037.8
2017-12-19T07:41:08.851Z,1037.8
2017-12-19T07:46:08.893Z,1037.8
2017-12-19T07:56:08.974Z,1037.7
2017-12-19T08:01:08.876Z,1037.7
2017-12-19T08:06:08.943Z,1037.9
2017-12-19T08:11:08.784Z,1037.8
2017-12-19T08:16:08.811Z,1037.8
2017-12-19T08:21:08.799Z,1037.8
2017-12-19T08:26:08.906Z,1038
2017-12-19T08:31:08.810Z,1037.8
2017-12-19T08:36:08.804Z,1037.9
2017-12-19T08:41:08.799Z,1037.9
2017-12-19T09:06:09.697Z,1038
2017-12-19T09:11:09.848Z,1038
2017-12-19T10:11:10.296Z,1037.7
2017-12-19T10:26:10.180Z,1037.3
2017-12-19T11:06:10.636Z,1037.2
2017-12-19T11:51:10.730Z,1037.1
2017-12-19T11:56:10.697Z,1037
2017-12-19T12:11:10.830Z,1037
2017-12-19T12:16:10.867Z,1036.9
2017-12-19T12:26:10.918Z,1036.8
2017-12-19T12:31:10.928Z,1036.7
2017-12-19T12:36:10.855Z,1036.6
2017-12-19T12:41:10.917Z,1036.7
2017-12-19T12:46:10.803Z,1036.8
2017-12-19T12:51:10.951Z,1036.8
2017-12-19T12:56:11.112Z,1036.8
2017-12-19T13:01:10.998Z,1036.7
2017-12-19T13:06:10.927Z,1036.7
2017-12-19T13:11:11.108Z,1036.3
2017-12-19T13:16:11.022Z,1036.4
2017-12-19T13:37:42.594Z,1035.9
2017-12-19T13:42:42.464Z,1035.8
2017-12-19T13:52:42.506Z,1035.8
2017-12-19T13:57:42.641Z,1035.8
2017-12-19T14:02:42.659Z,1035.7
2017-12-19T14:07:42.680Z,1035.7
2017-12-19T15:02:42.902Z,1035.8
2017-12-19T15:22:43.064Z,1036.3
2017-12-19T15:27:42.965Z,1036.4
2017-12-19T15:40:26.631Z,1036.3
2017-12-19T15:54:47.602Z,1036.2
2017-12-19T16:34:06.580Z,1036.7
2017-12-19T16:39:06.391Z,1036.6
2017-12-19T16:44:06.492Z,1036.6
2017-12-19T16:49:06.465Z,1036.6
2017-12-19T16:54:06.487Z,1036.5
2017-12-19T17:09:11.466Z,1036.7
2017-12-19T17:14:11.028Z,1036.7
2017-12-19T17:19:11.669Z,1036.7
2017-12-19T17:24:12.066Z,1036.7
2017-12-19T17:29:11.445Z,1036.8
2017-12-19T17:34:11.589Z,1036.8
2017-12-19T17:39:11.698Z,1036.8
2017-12-19T17:44:11.185Z,1036.9
2017-12-19T17:49:11.975Z,1036.9
2017-12-19T17:54:11.258Z,1036.9
2017-12-19T17:59:11.505Z,1036.9
2017-12-19T18:04:12.550Z,1036.9
2017-12-19T18:09:11.444Z,1036.9
2017-12-19T18:14:12.979Z,1036.8
2017-12-19T18:19:16.221Z,1036.8
2017-12-19T18:24:11.520Z,1036.7
2017-12-19T18:29:11.536Z,1036.7
2017-12-19T18:34:12.642Z,1036.7
2017-12-19T18:39:12.450Z,1036.5
2017-12-19T18:44:13.576Z,1036.4
2017-12-19T18:49:11.452Z,1036.3
2017-12-19T18:54:11.178Z,1036.2
2017-12-19T18:59:11.241Z,1036.1
2017-12-19T19:04:11.165Z,1035.9
2017-12-19T19:09:11.111Z,1035.6
2017-12-19T19:14:11.130Z,1035.4
2017-12-19T19:19:11.474Z,1035.7
2017-12-19T19:24:11.095Z,1035.8
2017-12-19T19:29:11.137Z,1035.9
2017-12-19T19:34:11.668Z,1035.9
2017-12-19T19:39:11.341Z,1036
2017-12-19T19:44:11.173Z,1036
2017-12-19T19:49:11.168Z,1036
2017-12-19T19:54:11.255Z,1036
2017-12-19T19:59:11.148Z,1035.9
2017-12-19T20:04:11.163Z,1035.8
2017-12-19T20:09:11.481Z,1035.8
2017-12-19T20:14:16.699Z,1035.7
2017-12-19T20:19:14.483Z,1035.8
2017-12-19T20:24:11.315Z,1035.8
2017-12-19T20:29:11.527Z,1035.9
2017-12-19T20:34:11.178Z,1036
2017-12-19T20:39:11.483Z,1035.9
2017-12-19T20:44:11.218Z,1035.8
2017-12-19T20:49:12.196Z,1035.7
2017-12-19T20:54:11.578Z,1035.8
2017-12-19T20:59:12.038Z,1035.8
2017-12-19T21:04:11.314Z,1035.8
2017-12-19T21:09:11.178Z,1035.8
2017-12-19T21:14:11.196Z,1035.9
2017-12-19T21:19:11.617Z,1035.8
2017-12-19T21:24:11.637Z,1035.8
2017-12-19T21:29:11.928Z,1035.9
2017-12-19T21:34:12.120Z,1035.9
2017-12-19T21:39:13.688Z,1035.9
2017-12-19T21:49:12.294Z,1036
2017-12-19T21:54:12.167Z,1036
2017-12-19T21:59:12.324Z,1036
2017-12-19T22:04:12.089Z,1036
2017-12-19T22:09:12.309Z,1036.1
2017-12-19T22:24:12.412Z,1036.3
2017-12-19T22:29:12.352Z,1036.3
2017-12-19T22:34:12.541Z,1036.4
2017-12-19T22:39:12.520Z,1036.3
2017-12-19T22:44:12.384Z,1036.3
2017-12-19T22:49:12.468Z,1036.3
2017-12-19T22:54:12.364Z,1036.3
2017-12-19T22:59:12.426Z,1036.3
2017-12-19T23:04:12.470Z,1036.2
2017-12-19T23:09:12.374Z,1036.2
2017-12-19T23:14:12.573Z,1036.1
2017-12-19T23:19:12.542Z,1036.2
2017-12-19T23:24:12.451Z,1036.1
2017-12-19T23:29:12.529Z,1036.1
2017-12-19T23:34:12.532Z,1036.1
2017-12-19T23:39:12.442Z,1036.1
2017-12-19T23:44:12.454Z,1036.1
2017-12-19T23:49:12.367Z,1036.1
2017-12-19T23:54:12.522Z,1036.1
2017-12-19T23:59:12.333Z,1036.1
